Time;durP1;ratioP1;P1;durP2;ratioP2;P2;SDS_P1;SDS_P2;PMS_P1;PMS_P2;Temp;Humidity;BMP_temperature;BMP_pressure;BME280_temperature;BME280_humidity;BME280_pressure;Samples;Min_cycle;Max_cycle;Signal;HPM_P1;HPM_P2
2023/06/07 00:01:06;;;;;;;9.73;5.40;;;18.50;99.90;;;;;;5101451;28;20040;-75
2023/06/07 00:03:37;;;;;;;13.02;6.30;;;18.50;99.90;;;;;;5093630;28;20465;-75
2023/06/07 00:06:05;;;;;;;12.75;5.45;;;18.50;99.90;;;;;;5094287;28;20028;-75
2023/06/07 00:08:31;;;;;;;12.05;5.60;;;18.60;99.90;;;;;;5093965;28;20020;-75
2023/06/07 00:10:58;;;;;;;8.63;5.22;;;18.60;99.90;;;;;;5109839;28;20040;-75
2023/06/07 00:13:24;;;;;;;8.93;5.43;;;18.70;99.90;;;;;;5114312;28;20123;-77
2023/06/07 00:15:50;;;;;;;10.65;5.10;;;18.70;99.90;;;;;;5114072;28;20379;-76
2023/06/07 00:18:19;;;;;;;11.40;6.10;;;18.70;99.90;;;;;;5095375;28;20089;-77
2023/06/07 00:20:49;;;;;;;13.50;5.78;;;18.70;99.90;;;;;;5113960;28;20085;-77
2023/06/07 00:23:20;;;;;;;9.05;5.53;;;18.60;99.90;;;;;;5113924;28;20102;-76
2023/06/07 00:25:47;;;;;;;13.80;5.60;;;18.60;99.90;;;;;;5095638;28;20023;-76
2023/06/07 00:28:13;;;;;;;9.75;5.45;;;18.60;99.90;;;;;;5095516;28;20111;-76
2023/06/07 00:30:39;;;;;;;15.55;5.70;;;18.60;99.90;;;;;;5103886;28;20172;-76
2023/06/07 00:33:08;;;;;;;10.25;5.88;;;18.60;99.90;;;;;;5093546;28;20031;-77
2023/06/07 00:35:34;;;;;;;8.70;5.40;;;18.60;99.90;;;;;;5093773;28;20024;-76
2023/06/07 00:38:05;;;;;;;13.82;5.93;;;18.60;99.90;;;;;;5093736;28;20024;-77
2023/06/07 00:40:31;;;;;;;14.18;6.05;;;18.50;99.90;;;;;;5106025;28;20035;-77
2023/06/07 00:42:57;;;;;;;11.25;6.15;;;18.50;99.90;;;;;;5113762;28;20016;-77
2023/06/07 00:45:23;;;;;;;11.45;5.63;;;18.40;99.90;;;;;;5113407;28;20081;-75
2023/06/07 00:47:49;;;;;;;10.07;5.78;;;18.40;99.90;;;;;;5094973;28;20047;-76
2023/06/07 00:50:15;;;;;;;16.10;7.43;;;18.30;99.90;;;;;;5094976;28;20378;-77
2023/06/07 00:52:43;;;;;;;11.70;6.00;;;18.30;99.90;;;;;;5113459;28;20102;-75
2023/06/07 00:55:11;;;;;;;10.68;5.60;;;18.30;99.90;;;;;;5113410;28;20459;-76
2023/06/07 00:57:38;;;;;;;10.85;5.80;;;18.20;99.90;;;;;;5113527;28;20084;-76
2023/06/07 01:00:13;;;;;;;12.68;5.80;;;18.20;99.90;;;;;;5108513;28;20036;-76
2023/06/07 01:02:39;;;;;;;11.63;5.90;;;18.10;99.90;;;;;;5092620;28;20028;-76
2023/06/07 01:05:06;;;;;;;;;;;18.10;99.90;;;;;;5093719;28;20389;-77
2023/06/07 01:07:32;;;;;;;12.13;5.90;;;18.10;99.90;;;;;;5093015;28;19918;-76
2023/06/07 01:10:03;;;;;;;12.57;6.47;;;18.10;99.90;;;;;;5100816;28;20023;-76
2023/06/07 01:12:30;;;;;;;13.75;6.15;;;18.10;99.90;;;;;;5113160;28;20028;-76
2023/06/07 01:14:57;;;;;;;12.05;6.35;;;18.20;99.90;;;;;;5094336;28;20032;-76
2023/06/07 01:17:26;;;;;;;16.70;6.30;;;18.20;99.90;;;;;;5113125;28;20043;-75
2023/06/07 01:19:53;;;;;;;14.18;6.90;;;18.20;99.90;;;;;;5113108;28;20031;-77
2023/06/07 01:22:27;;;;;;;16.77;7.13;;;18.10;99.90;;;;;;5112680;28;20031;-76
2023/06/07 01:24:56;;;;;;;12.13;7.15;;;18.10;99.90;;;;;;5113092;28;20126;-76
2023/06/07 01:27:27;;;;;;;13.93;6.63;;;18.10;99.90;;;;;;5112956;28;20031;-76
2023/06/07 01:29:58;;;;;;;18.85;7.43;;;18.10;99.90;;;;;;5109200;28;20076;-76
2023/06/07 01:32:25;;;;;;;16.40;7.40;;;18.10;99.90;;;;;;5107794;28;20388;-76
2023/06/07 01:34:53;;;;;;;14.85;7.30;;;18.10;99.90;;;;;;5091995;28;20020;-76
2023/06/07 01:37:21;;;;;;;15.43;6.95;;;18.10;99.90;;;;;;5092300;28;20024;-76
2023/06/07 01:39:50;;;;;;;12.40;7.13;;;18.10;99.90;;;;;;5080536;28;20059;-77
2023/06/07 01:42:17;;;;;;;13.70;7.30;;;18.10;99.90;;;;;;5112489;28;20523;-76
2023/06/07 01:44:47;;;;;;;21.50;7.32;;;18.20;99.90;;;;;;5112335;28;20034;-76
2023/06/07 01:47:14;;;;;;;13.32;7.13;;;18.10;99.90;;;;;;5112720;28;20031;-78
2023/06/07 01:49:41;;;;;;;13.13;7.00;;;18.10;99.90;;;;;;5112281;28;20159;-77
2023/06/07 01:52:08;;;;;;;13.50;7.47;;;18.20;99.90;;;;;;5112397;28;20027;-75
2023/06/07 01:54:35;;;;;;;17.50;7.65;;;18.20;99.90;;;;;;5093936;28;20110;-75
2023/06/07 01:57:16;;;;;;;17.73;7.38;;;18.20;99.90;;;;;;5111794;28;20027;-76
2023/06/07 02:00:11;;;;;;;13.57;7.30;;;18.10;99.90;;;;;;5091784;28;20385;-76
2023/06/07 02:03:14;;;;;;;17.85;7.40;;;18.10;99.90;;;;;;5092148;28;20062;-77
2023/06/07 02:05:47;;;;;;;19.92;8.00;;;18.10;99.90;;;;;;5092006;28;20357;-77
2023/06/07 02:08:19;;;;;;;12.50;7.20;;;18.10;99.90;;;;;;5091962;28;20089;-76
2023/06/07 02:10:47;;;;;;;15.02;7.47;;;18.10;99.90;;;;;;5106046;28;20063;-73
2023/06/07 02:13:15;;;;;;;13.10;7.40;;;18.10;99.90;;;;;;5093862;28;20353;-73
2023/06/07 02:15:45;;;;;;;12.60;7.47;;;18.00;99.90;;;;;;5111771;28;20031;-75
2023/06/07 02:18:11;;;;;;;10.95;6.60;;;18.10;99.90;;;;;;5093091;28;20026;-75
2023/06/07 02:20:38;;;;;;;10.65;6.57;;;18.00;99.90;;;;;;5111397;28;20036;-75
2023/06/07 02:23:04;;;;;;;15.60;7.70;;;18.00;99.90;;;;;;5111547;28;20372;-74
2023/06/07 02:25:34;;;;;;;14.38;7.40;;;18.10;99.90;;;;;;5111568;28;20031;-72
2023/06/07 02:28:00;;;;;;;11.07;6.60;;;18.10;99.90;;;;;;5111505;28;20015;-74
2023/06/07 02:30:26;;;;;;;14.20;6.63;;;18.10;99.90;;;;;;5103113;28;20071;-74
2023/06/07 02:32:54;;;;;;;17.35;7.05;;;18.10;99.90;;;;;;5090991;28;20091;-74
2023/06/07 02:35:21;;;;;;;15.27;6.90;;;18.20;99.90;;;;;;5090698;28;20020;-75
2023/06/07 02:37:47;;;;;;;14.85;7.10;;;18.20;99.90;;;;;;5072618;28;20487;-76
2023/06/07 02:40:14;;;;;;;11.88;6.78;;;18.20;99.90;;;;;;5100821;28;20076;-76
2023/06/07 02:42:44;;;;;;;;;;;18.20;99.90;;;;;;5111636;28;20053;-76
2023/06/07 02:45:12;;;;;;;11.85;6.47;;;18.20;99.90;;;;;;5092571;28;19903;-75
2023/06/07 02:47:38;;;;;;;11.02;6.82;;;18.30;99.90;;;;;;5110970;28;20532;-75
2023/06/07 02:50:06;;;;;;;15.60;6.53;;;18.30;99.90;;;;;;5111479;28;20481;-75
2023/06/07 02:52:36;;;;;;;15.07;7.03;;;18.40;99.90;;;;;;5111098;28;20019;-75
2023/06/07 02:55:03;;;;;;;10.50;7.32;;;18.40;99.90;;;;;;5111208;28;20047;-74
2023/06/07 02:57:29;;;;;;;14.38;7.22;;;18.40;99.90;;;;;;5111680;28;20035;-75
2023/06/07 02:59:56;;;;;;;11.05;6.47;;;18.30;99.90;;;;;;5088886;28;20024;-75
2023/06/07 03:02:21;;;;;;;;;;;18.40;99.90;;;;;;5091192;28;20024;-76
2023/06/07 03:04:48;;;;;;;14.15;7.22;;;18.40;99.90;;;;;;5090631;28;19915;-75
2023/06/07 03:07:15;;;;;;;;;;;18.30;99.90;;;;;;5091055;28;20028;-75
2023/06/07 03:09:41;;;;;;;14.77;6.85;;;18.30;99.90;;;;;;5078382;28;20245;-75
2023/06/07 03:12:08;;;;;;;12.07;6.93;;;18.30;99.90;;;;;;5111291;28;20043;-75
2023/06/07 03:14:34;;;;;;;17.48;6.95;;;18.30;99.90;;;;;;5110624;28;20035;-75
2023/06/07 03:17:02;;;;;;;14.40;6.97;;;18.30;99.90;;;;;;5111106;28;20536;-74
2023/06/07 03:19:29;;;;;;;14.55;7.15;;;18.30;99.90;;;;;;5110911;28;20023;-75
2023/06/07 03:21:55;;;;;;;12.43;6.53;;;18.30;99.90;;;;;;5111500;28;20106;-75
2023/06/07 03:24:23;;;;;;;13.55;7.10;;;18.20;99.90;;;;;;5112167;28;20062;-76
2023/06/07 03:26:50;;;;;;;13.57;6.97;;;18.20;99.90;;;;;;5112596;28;20469;-75
2023/06/07 03:29:16;;;;;;;18.13;7.22;;;18.20;99.90;;;;;;5112228;28;20072;-75
2023/06/07 03:31:42;;;;;;;12.38;6.63;;;18.20;99.90;;;;;;5093494;28;20072;-75
2023/06/07 03:34:08;;;;;;;11.30;6.60;;;18.20;99.90;;;;;;5091669;28;20024;-75
2023/06/07 03:36:35;;;;;;;15.73;6.65;;;18.10;99.90;;;;;;5092292;28;20028;-75
2023/06/07 03:39:02;;;;;;;;;;;18.20;99.90;;;;;;5092005;28;20104;-76
2023/06/07 03:41:28;;;;;;;14.68;6.88;;;18.20;99.90;;;;;;5071991;28;20059;-76
2023/06/07 03:43:54;;;;;;;15.88;7.45;;;18.20;99.90;;;;;;5072042;28;20115;-75
2023/06/07 03:46:20;;;;;;;15.30;6.82;;;18.20;99.90;;;;;;5071537;28;20498;-74
2023/06/07 03:48:46;;;;;;;12.60;6.72;;;18.20;99.90;;;;;;5071476;28;20032;-75
2023/06/07 03:51:12;;;;;;;15.27;7.10;;;18.10;99.90;;;;;;5071935;28;20028;-75
2023/06/07 03:53:38;;;;;;;20.20;7.45;;;18.10;99.90;;;;;;5071940;28;20028;-75
2023/06/07 03:56:05;;;;;;;12.25;6.45;;;18.20;99.90;;;;;;5053411;28;20025;-76
2023/06/07 03:58:31;;;;;;;;;;;18.20;99.90;;;;;;5053805;28;20119;-76
2023/06/07 04:00:57;;;;;;;14.38;7.35;;;18.20;99.90;;;;;;5083651;28;20003;-76
2023/06/07 04:03:27;;;;;;;19.50;7.57;;;18.20;99.90;;;;;;5090907;28;20035;-77
2023/06/07 04:05:57;;;;;;;14.70;6.88;;;18.20;99.90;;;;;;5073166;28;20028;-75
2023/06/07 04:08:24;;;;;;;15.05;7.65;;;18.20;99.90;;;;;;5091977;28;20020;-74
2023/06/07 04:10:50;;;;;;;14.75;7.10;;;18.20;99.90;;;;;;5122061;28;20052;-75
2023/06/07 04:13:16;;;;;;;12.90;7.47;;;18.20;99.90;;;;;;5111864;28;20032;-74
2023/06/07 04:15:46;;;;;;;14.45;7.53;;;18.20;99.90;;;;;;5112282;28;20036;-73
2023/06/07 04:18:12;;;;;;;12.98;6.68;;;18.30;99.90;;;;;;5112619;28;20417;-74
2023/06/07 04:20:41;;;;;;;12.10;6.70;;;18.30;99.90;;;;;;5115657;28;20054;-74
2023/06/07 04:23:07;;;;;;;14.07;6.60;;;18.40;99.90;;;;;;5116867;28;20019;-74
2023/06/07 04:25:33;;;;;;;12.40;7.03;;;18.40;99.90;;;;;;5116777;28;20498;-73
2023/06/07 04:28:00;;;;;;;11.73;7.32;;;18.40;99.90;;;;;;5097962;28;20036;-74
2023/06/07 04:30:40;;;;;;;10.00;6.18;;;18.40;99.90;;;;;;5108222;28;20028;-74
2023/06/07 04:33:09;;;;;;;14.70;7.22;;;18.50;99.90;;;;;;5095931;28;20460;-74
2023/06/07 04:35:38;;;;;;;13.68;6.97;;;18.40;99.90;;;;;;5095905;28;20020;-75
2023/06/07 04:38:04;;;;;;;12.18;7.10;;;18.30;99.90;;;;;;5077220;28;20419;-75
2023/06/07 04:40:30;;;;;;;13.40;6.88;;;18.30;99.90;;;;;;5108048;28;20387;-74
2023/06/07 04:43:06;;;;;;;16.63;6.97;;;18.30;99.90;;;;;;5116221;28;20035;-73
2023/06/07 04:45:33;;;;;;;14.13;6.57;;;18.40;99.90;;;;;;5115623;28;20437;-74
2023/06/07 04:47:59;;;;;;;;;;;18.40;99.90;;;;;;5115817;28;20055;-74
2023/06/07 04:50:26;;;;;;;12.85;6.30;;;18.50;99.90;;;;;;5115404;28;19950;-74
2023/06/07 04:53:00;;;;;;;14.20;6.65;;;18.60;99.90;;;;;;5096844;28;20027;-74
2023/06/07 04:55:31;;;;;;;11.73;6.45;;;18.60;99.90;;;;;;5115446;28;20030;-75
2023/06/07 04:58:05;;;;;;;15.32;6.97;;;18.60;99.90;;;;;;5115387;28;20088;-75
2023/06/07 05:00:34;;;;;;;14.02;6.80;;;18.60;99.90;;;;;;5106479;28;20032;-75
2023/06/07 05:03:06;;;;;;;13.68;6.50;;;18.60;99.90;;;;;;5094520;28;20043;-74
2023/06/07 05:05:33;;;;;;;14.60;6.88;;;18.60;99.90;;;;;;5095171;28;20026;-74
2023/06/07 05:07:59;;;;;;;9.68;6.03;;;18.70;99.90;;;;;;5094539;28;20074;-74
2023/06/07 05:10:25;;;;;;;14.43;6.10;;;18.80;99.90;;;;;;5106084;28;20048;-73
2023/06/07 05:12:56;;;;;;;12.98;6.25;;;18.80;99.90;;;;;;5096870;28;20051;-75
2023/06/07 05:15:23;;;;;;;11.77;5.82;;;18.80;99.90;;;;;;5114721;28;20020;-74
2023/06/07 05:17:50;;;;;;;15.98;6.30;;;18.90;99.90;;;;;;5115507;28;20016;-75
2023/06/07 05:20:17;;;;;;;10.73;6.35;;;18.90;99.90;;;;;;5115511;28;20460;-75
2023/06/07 05:22:43;;;;;;;;;;;19.00;99.90;;;;;;5116081;28;20154;-76
2023/06/07 05:25:11;;;;;;;;;;;19.00;99.90;;;;;;5115758;28;20285;-76
2023/06/07 05:27:41;;;;;;;13.98;5.57;;;19.00;99.90;;;;;;5115094;28;19903;-76
2023/06/07 05:30:08;;;;;;;17.08;5.80;;;19.10;99.90;;;;;;5091641;28;20077;-75
2023/06/07 05:32:35;;;;;;;11.80;5.93;;;19.30;99.90;;;;;;5094759;28;20032;-75
2023/06/07 05:35:02;;;;;;;10.85;5.65;;;19.60;99.90;;;;;;5094056;28;20080;-74
2023/06/07 05:37:29;;;;;;;15.52;5.85;;;19.70;99.90;;;;;;5093949;28;20066;-76
2023/06/07 05:39:55;;;;;;;12.38;6.00;;;19.80;99.90;;;;;;5101812;28;20058;-77
2023/06/07 05:42:22;;;;;;;11.90;5.30;;;20.20;99.90;;;;;;5114499;28;20023;-75
2023/06/07 05:44:48;;;;;;;11.02;4.40;;;21.50;99.90;;;;;;5114241;28;20114;-76
2023/06/07 05:47:15;;;;;;;11.25;5.00;;;23.00;99.90;;;;;;5114169;28;20023;-74
2023/06/07 05:49:44;;;;;;;10.43;4.28;;;24.10;99.90;;;;;;5113237;28;20117;-75
2023/06/07 05:52:13;;;;;;;14.50;4.78;;;25.40;99.90;;;;;;5094670;28;20028;-75
2023/06/07 05:54:47;;;;;;;11.38;3.63;;;26.20;99.90;;;;;;5094693;28;20020;-75
2023/06/07 05:57:13;;;;;;;11.95;3.70;;;27.40;99.90;;;;;;5113587;28;20375;-75
2023/06/07 05:59:39;;;;;;;10.02;3.80;;;28.20;99.90;;;;;;5112218;28;20020;-74
2023/06/07 06:02:07;;;;;;;12.23;3.58;;;27.80;99.90;;;;;;5092948;28;20028;-74
2023/06/07 06:04:33;;;;;;;11.10;3.58;;;27.90;99.90;;;;;;5092602;28;20020;-74
2023/06/07 06:07:05;;;;;;;10.00;3.53;;;28.30;99.90;;;;;;5093087;28;20051;-75
2023/06/07 06:09:31;;;;;;;12.30;3.65;;;28.90;99.90;;;;;;5096896;28;20178;-74
2023/06/07 06:11:59;;;;;;;13.75;3.65;;;30.10;99.90;;;;;;5094415;28;20109;-76
2023/06/07 06:14:25;;;;;;;8.50;3.08;;;31.60;99.90;;;;;;5094703;28;20432;-75
2023/06/07 06:16:51;;;;;;;13.02;3.10;;;31.20;99.90;;;;;;5112785;28;20479;-74
2023/06/07 06:19:17;;;;;;;10.88;3.50;;;31.20;99.90;;;;;;5112741;28;20090;-76
2023/06/07 06:21:43;;;;;;;;;;;31.90;99.90;;;;;;5113932;28;20058;-77
2023/06/07 06:24:09;;;;;;;10.27;2.72;;;32.60;99.90;;;;;;5113043;28;19903;-75
2023/06/07 06:26:36;;;;;;;12.23;3.42;;;33.30;99.90;;;;;;5113407;28;20034;-75
2023/06/07 06:29:02;;;;;;;9.90;3.22;;;32.90;99.90;;;;;;5113210;28;20019;-75
2023/06/07 06:31:28;;;;;;;9.20;3.40;;;32.80;99.90;;;;;;5096236;28;20021;-76
2023/06/07 06:33:54;;;;;;;8.65;2.85;;;32.70;99.90;;;;;;5074462;28;20028;-76
2023/06/07 06:36:20;;;;;;;10.60;2.75;;;32.30;99.90;;;;;;5092526;28;20028;-74
2023/06/07 06:38:47;;;;;;;10.10;3.17;;;33.20;99.90;;;;;;5092191;28;20024;-76
2023/06/07 06:41:13;;;;;;;10.20;3.33;;;34.70;99.90;;;;;;5110371;28;20038;-75
2023/06/07 06:43:39;;;;;;;12.70;3.10;;;35.10;99.90;;;;;;5112134;28;20090;-76
2023/06/07 06:46:06;;;;;;;10.13;2.58;;;35.80;99.90;;;;;;5112472;28;20020;-77
2023/06/07 06:48:32;;;;;;;9.38;2.88;;;34.70;99.90;;;;;;5093956;28;20037;-75
2023/06/07 06:50:58;;;;;;;6.32;2.33;;;35.70;99.90;;;;;;5093917;28;20023;-74
2023/06/07 06:53:24;;;;;;;8.32;2.90;;;35.00;99.90;;;;;;5112323;28;20127;-75
2023/06/07 06:55:50;;;;;;;9.25;2.47;;;35.20;99.90;;;;;;5112656;28;20022;-75
2023/06/07 06:58:16;;;;;;;10.90;3.05;;;34.20;99.90;;;;;;5093859;28;20027;-74
2023/06/07 07:00:42;;;;;;;6.50;2.40;;;33.60;99.90;;;;;;5083630;28;20042;-75
2023/06/07 07:03:08;;;;;;;10.13;3.00;;;34.00;99.90;;;;;;5091182;28;20048;-75
2023/06/07 07:05:34;;;;;;;15.68;2.60;;;34.80;99.90;;;;;;5090637;28;20036;-75
2023/06/07 07:08:03;;;;;;;8.63;2.58;;;35.10;99.90;;;;;;5092025;28;20039;-76
2023/06/07 07:10:29;;;;;;;238.05;16.77;;;34.50;99.90;;;;;;5100869;28;20111;-76
2023/06/07 07:12:55;;;;;;;7.72;2.92;;;32.90;99.90;;;;;;5092348;28;20056;-76
2023/06/07 07:15:21;;;;;;;8.68;2.90;;;31.30;99.90;;;;;;5091927;28;20389;-77
2023/06/07 07:17:49;;;;;;;7.47;3.10;;;31.20;99.90;;;;;;5092513;28;20065;-77
2023/06/07 07:20:16;;;;;;;7.72;3.70;;;30.70;99.90;;;;;;5091684;28;20085;-73
2023/06/07 07:22:44;;;;;;;11.25;3.33;;;30.70;99.90;;;;;;5091754;28;20380;-76
2023/06/07 07:25:11;;;;;;;7.90;3.38;;;30.60;99.90;;;;;;5092050;28;20031;-76
2023/06/07 07:27:37;;;;;;;9.10;3.20;;;29.80;99.90;;;;;;5091827;28;20020;-76
2023/06/07 07:30:04;;;;;;;9.63;3.20;;;29.10;99.90;;;;;;5091502;28;20028;-76
2023/06/07 07:32:32;;;;;;;8.35;3.28;;;28.90;99.90;;;;;;5074001;28;20109;-76
2023/06/07 07:34:58;;;;;;;7.90;3.30;;;29.10;99.90;;;;;;5091515;28;20107;-75
2023/06/07 07:37:25;;;;;;;9.80;3.80;;;29.00;99.90;;;;;;5091876;28;20028;-75
2023/06/07 07:39:51;;;;;;;10.10;3.92;;;28.30;99.90;;;;;;5080699;28;20429;-76
2023/06/07 07:42:17;;;;;;;8.27;3.25;;;27.20;99.90;;;;;;5112544;28;20316;-76
2023/06/07 07:44:43;;;;;;;8.00;3.40;;;27.50;99.90;;;;;;5112376;28;20031;-76
2023/06/07 07:47:10;;;;;;;7.25;3.40;;;28.00;99.90;;;;;;5112752;28;20031;-76
2023/06/07 07:49:36;;;;;;;8.48;3.38;;;27.20;99.90;;;;;;5093663;28;20119;-75
2023/06/07 07:52:03;;;;;;;10.98;3.47;;;27.90;99.90;;;;;;5111381;28;20027;-76
2023/06/07 07:54:29;;;;;;;;;;;28.30;99.90;;;;;;5093841;28;20123;-76
2023/06/07 07:56:56;;;;;;;7.53;3.30;;;29.00;99.90;;;;;;5115025;28;19972;-77
2023/06/07 07:59:22;;;;;;;11.98;4.35;;;29.50;99.90;;;;;;5114928;28;20031;-76
2023/06/07 08:01:49;;;;;;;8.80;3.47;;;29.80;99.90;;;;;;5095368;28;20032;-75
2023/06/07 08:04:16;;;;;;;11.38;3.60;;;30.40;99.90;;;;;;5094241;28;20020;-74
2023/06/07 08:06:42;;;;;;;9.50;3.58;;;30.50;99.90;;;;;;5094357;28;20472;-75
2023/06/07 08:09:10;;;;;;;9.13;3.30;;;30.20;99.90;;;;;;5095277;28;20069;-75
2023/06/07 08:11:36;;;;;;;7.32;3.22;;;29.10;99.90;;;;;;5096278;28;20104;-75
2023/06/07 08:14:03;;;;;;;9.13;3.45;;;29.30;99.90;;;;;;5096802;28;20027;-75
2023/06/07 08:16:30;;;;;;;6.95;3.10;;;29.40;99.90;;;;;;5096588;28;20026;-75
2023/06/07 08:18:57;;;;;;;8.43;3.53;;;28.30;99.90;;;;;;5115694;28;20016;-77
2023/06/07 08:21:24;;;;;;;10.27;3.78;;;28.50;99.90;;;;;;5115756;28;20032;-75
2023/06/07 08:23:54;;;;;;;11.02;3.78;;;29.10;99.90;;;;;;5115543;28;20024;-74
2023/06/07 08:26:21;;;;;;;9.98;3.60;;;29.20;99.90;;;;;;5115801;28;20055;-76
2023/06/07 08:28:46;;;;;;;;;;;29.10;99.90;;;;;;5115670;28;20467;-76
2023/06/07 08:31:13;;;;;;;8.68;3.67;;;29.10;99.90;;;;;;5100936;28;19995;-74
2023/06/07 08:33:39;;;;;;;10.93;4.32;;;28.70;99.90;;;;;;5111101;28;20020;-75
2023/06/07 08:36:05;;;;;;;9.65;4.00;;;28.40;99.90;;;;;;5076144;28;20387;-76
2023/06/07 08:38:31;;;;;;;;;;;29.00;99.90;;;;;;5077262;28;20031;-76
2023/06/07 08:40:59;;;;;;;10.48;3.85;;;29.20;99.90;;;;;;5110701;28;19912;-75
2023/06/07 08:43:27;;;;;;;12.57;3.90;;;29.00;99.90;;;;;;5115041;28;20032;-76
2023/06/07 08:45:59;;;;;;;8.27;3.63;;;29.10;99.90;;;;;;5114659;28;20028;-74
2023/06/07 08:48:25;;;;;;;16.77;3.60;;;29.20;99.90;;;;;;5114724;28;20040;-75
2023/06/07 08:50:53;;;;;;;;;;;29.20;99.90;;;;;;5115622;28;20074;-76
2023/06/07 08:53:54;;;;;;;10.93;3.42;;;29.10;99.90;;;;;;5096411;28;20010;-75
2023/06/07 08:56:23;;;;;;;10.88;3.85;;;28.90;99.90;;;;;;5104688;28;20027;-75
2023/06/07 08:58:51;;;;;;;10.50;3.63;;;29.30;99.90;;;;;;5115104;28;20028;-75
2023/06/07 09:01:20;;;;;;;6.80;3.92;;;29.50;99.90;;;;;;5099486;28;20043;-76
2023/06/07 09:03:52;;;;;;;7.82;3.45;;;29.40;99.90;;;;;;5094369;28;20024;-75
2023/06/07 09:06:19;;;;;;;10.27;3.92;;;29.10;99.90;;;;;;5093973;28;20059;-75
2023/06/07 09:08:45;;;;;;;7.75;3.40;;;29.00;99.90;;;;;;5093829;28;20070;-74
2023/06/07 09:11:11;;;;;;;9.30;3.80;;;29.30;99.90;;;;;;5111678;28;20057;-75
2023/06/07 09:13:37;;;;;;;11.85;3.83;;;29.40;99.90;;;;;;5114060;28;20028;-75
2023/06/07 09:16:04;;;;;;;10.40;3.42;;;29.70;99.90;;;;;;5114331;28;20015;-76
2023/06/07 09:18:47;;;;;;;10.25;3.60;;;29.40;99.90;;;;;;5114338;28;20110;-75
2023/06/07 09:21:40;;;;;;;11.52;3.78;;;29.30;99.90;;;;;;5114076;28;20039;-75
2023/06/07 09:24:06;;;;;;;7.57;3.65;;;29.30;99.90;;;;;;5111151;28;20035;-76
2023/06/07 09:26:36;;;;;;;;;;;29.50;99.90;;;;;;5095808;28;20148;-75
2023/06/07 09:29:10;;;;;;;10.88;3.85;;;29.60;99.90;;;;;;5113911;28;19908;-76
2023/06/07 09:31:37;;;;;;;8.82;3.47;;;29.20;99.90;;;;;;5095778;28;20476;-76
2023/06/07 09:34:22;;;;;;;8.55;3.53;;;28.90;99.90;;;;;;5093129;28;20360;-76
2023/06/07 09:36:51;;;;;;;11.47;3.90;;;28.80;99.90;;;;;;5093597;28;20038;-77
2023/06/07 09:39:26;;;;;;;7.25;3.97;;;28.90;99.90;;;;;;5095270;28;20058;-77
2023/06/07 09:41:54;;;;;;;7.43;3.47;;;28.60;99.90;;;;;;5095426;28;20031;-76
2023/06/07 09:44:28;;;;;;;10.90;4.10;;;28.20;99.90;;;;;;5078487;28;20043;-75
2023/06/07 09:46:55;;;;;;;7.15;3.65;;;28.60;99.90;;;;;;5113675;28;20118;-75
2023/06/07 09:49:34;;;;;;;6.55;3.47;;;28.40;99.90;;;;;;5113614;28;20019;-74
2023/06/07 09:52:06;;;;;;;7.68;3.53;;;28.30;99.90;;;;;;5113877;28;20520;-76
2023/06/07 09:54:37;;;;;;;8.20;3.95;;;28.40;99.90;;;;;;5113639;28;20084;-75
2023/06/07 09:57:11;;;;;;;8.48;3.38;;;28.30;99.90;;;;;;5113271;28;20119;-76
2023/06/07 09:59:38;;;;;;;7.38;3.55;;;28.50;99.90;;;;;;5111743;28;20035;-75
2023/06/07 10:02:26;;;;;;;10.63;3.53;;;28.50;99.90;;;;;;5093010;28;20502;-75
2023/06/07 10:05:00;;;;;;;8.63;3.50;;;28.30;99.90;;;;;;5082390;28;20039;-76
2023/06/07 10:07:47;;;;;;;17.00;3.83;;;28.60;99.90;;;;;;5074777;28;20476;-77
2023/06/07 10:10:15;;;;;;;9.85;3.53;;;28.20;99.90;;;;;;5102577;28;20038;-76
2023/06/07 10:12:44;;;;;;;7.25;3.42;;;28.20;99.90;;;;;;5113413;28;20023;-74
2023/06/07 10:15:15;;;;;;;11.93;3.40;;;28.30;99.90;;;;;;5113551;28;20043;-74
2023/06/07 10:17:48;;;;;;;10.32;3.80;;;28.20;99.90;;;;;;5112217;28;20039;-76
2023/06/07 10:20:26;;;;;;;8.55;3.42;;;27.80;99.90;;;;;;5112721;28;20035;-75
2023/06/07 10:23:16;;;;;;;10.80;3.60;;;27.90;99.90;;;;;;5113392;28;20043;-77
2023/06/07 10:25:44;;;;;;;6.82;3.08;;;27.90;99.90;;;;;;5113603;28;20110;-76
2023/06/07 10:28:10;;;;;;;7.45;3.80;;;27.60;99.90;;;;;;5113807;28;20028;-75
2023/06/07 10:30:40;;;;;;;6.82;3.55;;;27.50;99.90;;;;;;5104077;28;20027;-75
2023/06/07 10:33:08;;;;;;;8.45;3.47;;;27.60;99.90;;;;;;5092671;28;20104;-75
2023/06/07 10:35:36;;;;;;;9.77;3.67;;;27.80;99.90;;;;;;5092483;28;20028;-75
2023/06/07 10:38:02;;;;;;;8.95;3.60;;;27.90;99.90;;;;;;5092478;28;20437;-76
2023/06/07 10:40:28;;;;;;;7.60;3.40;;;27.70;99.90;;;;;;5120140;27;20134;-76
2023/06/07 10:42:56;;;;;;;6.25;3.40;;;27.80;99.90;;;;;;5113178;28;20057;-75
2023/06/07 10:45:22;;;;;;;8.02;3.40;;;27.80;99.90;;;;;;5113057;28;20472;-75
2023/06/07 10:47:48;;;;;;;9.95;3.30;;;27.90;99.90;;;;;;5113283;28;20019;-76
2023/06/07 10:50:26;;;;;;;10.10;3.75;;;28.00;99.90;;;;;;5112294;28;20020;-76
2023/06/07 10:53:00;;;;;;;6.65;3.42;;;28.10;99.90;;;;;;5112809;28;20039;-76
2023/06/07 10:55:33;;;;;;;10.07;3.63;;;27.90;99.90;;;;;;5112004;28;20027;-74
2023/06/07 10:58:00;;;;;;;7.30;3.55;;;28.00;99.90;;;;;;5112662;28;20023;-76
2023/06/07 11:00:30;;;;;;;11.60;3.70;;;28.00;99.90;;;;;;5104059;28;20123;-75
2023/06/07 11:03:06;;;;;;;13.20;3.67;;;28.00;99.90;;;;;;5091507;28;20113;-76
2023/06/07 11:05:51;;;;;;;;;;;28.10;99.90;;;;;;5091838;28;20433;-76
2023/06/07 11:08:31;;;;;;;10.63;3.83;;;27.70;99.90;;;;;;5092136;28;19946;-76
2023/06/07 11:11:00;;;;;;;8.55;4.00;;;27.70;99.90;;;;;;5107559;28;20039;-76
2023/06/07 11:13:54;;;;;;;7.25;3.53;;;27.90;99.90;;;;;;5093558;28;20114;-75
2023/06/07 11:16:23;;;;;;;10.10;3.50;;;27.90;99.90;;;;;;5112743;28;20376;-75
2023/06/07 11:19:05;;;;;;;9.07;3.42;;;27.80;99.90;;;;;;5112400;28;20092;-75
2023/06/07 11:21:57;;;;;;;8.60;3.53;;;27.80;99.90;;;;;;5112488;28;20047;-75
2023/06/07 11:24:24;;;;;;;7.70;3.70;;;27.60;99.90;;;;;;5102412;28;20039;-76
2023/06/07 11:26:50;;;;;;;11.52;3.45;;;27.20;99.90;;;;;;5113057;28;20156;-76
2023/06/07 11:29:17;;;;;;;8.20;3.50;;;27.20;99.90;;;;;;5115287;28;20042;-76
2023/06/07 11:31:47;;;;;;;7.97;3.85;;;27.20;99.90;;;;;;5098015;28;20026;-76
2023/06/07 11:34:14;;;;;;;8.88;3.70;;;27.20;99.90;;;;;;5096605;28;20493;-76
2023/06/07 11:36:42;;;;;;;7.40;3.47;;;27.30;99.90;;;;;;5096540;28;20031;-75
2023/06/07 11:39:09;;;;;;;6.90;3.55;;;27.10;99.90;;;;;;5097359;28;20016;-75
2023/06/07 11:41:35;;;;;;;;;;;26.70;99.90;;;;;;5117571;28;20487;-75
2023/06/07 11:44:03;;;;;;;7.40;3.22;;;26.80;99.90;;;;;;5117135;28;20340;-76
2023/06/07 11:46:32;;;;;;;7.50;3.58;;;26.90;99.90;;;;;;5116387;28;20032;-76
2023/06/07 11:49:07;;;;;;;10.82;3.80;;;26.70;99.90;;;;;;5116897;28;20167;-76
2023/06/07 11:51:34;;;;;;;7.90;3.40;;;26.80;99.90;;;;;;5116323;28;20035;-76
2023/06/07 11:54:00;;;;;;;7.18;3.38;;;26.90;99.90;;;;;;5117308;28;20020;-76
2023/06/07 11:56:27;;;;;;;7.18;3.30;;;26.80;99.90;;;;;;5116791;28;20030;-75
2023/06/07 11:58:54;;;;;;;9.27;3.42;;;26.80;99.90;;;;;;5116657;28;20072;-76
2023/06/07 12:01:20;;;;;;;12.35;3.70;;;26.60;99.90;;;;;;5100702;28;20040;-76
2023/06/07 12:03:48;;;;;;;10.38;3.40;;;26.70;99.90;;;;;;5095571;28;20026;-74
2023/06/07 12:06:14;;;;;;;8.68;3.47;;;26.70;99.90;;;;;;5095782;28;20038;-74
2023/06/07 12:08:40;;;;;;;6.57;3.47;;;26.70;99.90;;;;;;5096200;28;20016;-75
2023/06/07 12:11:06;;;;;;;9.50;3.35;;;26.90;99.90;;;;;;5113098;28;20074;-75
2023/06/07 12:13:40;;;;;;;9.05;3.50;;;26.80;99.90;;;;;;5098016;28;20024;-75
2023/06/07 12:16:07;;;;;;;9.32;3.70;;;27.00;99.90;;;;;;5116410;28;20027;-76
2023/06/07 12:18:38;;;;;;;9.80;3.58;;;27.40;99.90;;;;;;5116843;28;20023;-75
2023/06/07 12:21:08;;;;;;;8.10;3.40;;;27.60;99.90;;;;;;5116420;28;20036;-75
2023/06/07 12:23:35;;;;;;;11.13;3.40;;;27.40;99.90;;;;;;5098370;28;20027;-75
2023/06/07 12:26:16;;;;;;;9.27;3.53;;;27.10;99.90;;;;;;5098226;28;20023;-76
2023/06/07 12:28:43;;;;;;;8.68;3.35;;;27.50;99.90;;;;;;5116584;28;20447;-75
2023/06/07 12:31:16;;;;;;;5.80;3.25;;;27.40;99.90;;;;;;5102329;28;20032;-75
2023/06/07 12:33:58;;;;;;;7.00;3.30;;;27.40;99.90;;;;;;5095842;28;20439;-74
2023/06/07 12:36:28;;;;;;;8.88;3.63;;;27.50;99.90;;;;;;5096146;28;20051;-75
2023/06/07 12:38:57;;;;;;;9.18;3.42;;;27.40;99.90;;;;;;5096112;28;20077;-76
2023/06/07 12:41:27;;;;;;;9.82;3.53;;;27.40;99.90;;;;;;5114792;28;20035;-76
2023/06/07 12:43:56;;;;;;;7.90;3.83;;;27.30;99.90;;;;;;5116840;28;20467;-75
2023/06/07 12:46:22;;;;;;;7.63;3.92;;;27.30;99.90;;;;;;5116908;28;20023;-75
2023/06/07 12:48:48;;;;;;;9.68;3.80;;;27.40;99.90;;;;;;5115880;28;20028;-75
2023/06/07 12:51:14;;;;;;;12.85;4.68;;;27.50;99.90;;;;;;5115972;28;20042;-75
2023/06/07 12:53:40;;;;;;;7.82;3.65;;;27.50;99.90;;;;;;5116292;28;20023;-76